sensor_id;sensor_type;location;lat;lon;timestamp;P1;durP1;ratioP1;P2;durP2;ratioP2
51614;SDS011;37695;52.960;6.188;2024-03-23T00:55:42;12.95;;;1.85;;
51614;SDS011;37695;52.960;6.188;2024-03-23T00:58:08;13.10;;;2.50;;
51614;SDS011;37695;52.960;6.188;2024-03-23T01:00:34;15.93;;;2.22;;
51614;SDS011;37695;52.960;6.188;2024-03-23T01:03:00;10.18;;;1.90;;
51614;SDS011;37695;52.960;6.188;2024-03-23T01:05:26;14.23;;;2.40;;
51614;SDS011;37695;52.960;6.188;2024-03-23T01:07:52;11.65;;;1.77;;
51614;SDS011;37695;52.960;6.188;2024-03-23T01:10:18;18.70;;;2.78;;
51614;SDS011;37695;52.960;6.188;2024-03-23T01:12:44;12.60;;;1.83;;
51614;SDS011;37695;52.960;6.188;2024-03-23T01:15:10;11.85;;;1.60;;
51614;SDS011;37695;52.960;6.188;2024-03-23T01:17:35;9.50;;;1.38;;
51614;SDS011;37695;52.960;6.188;2024-03-23T01:20:01;9.25;;;1.75;;
51614;SDS011;37695;52.960;6.188;2024-03-23T01:22:27;10.68;;;1.48;;
51614;SDS011;37695;52.960;6.188;2024-03-23T01:24:52;8.90;;;1.90;;
51614;SDS011;37695;52.960;6.188;2024-03-23T01:27:18;9.70;;;1.60;;
51614;SDS011;37695;52.960;6.188;2024-03-23T01:29:44;9.57;;;2.08;;
51614;SDS011;37695;52.960;6.188;2024-03-23T01:32:10;10.65;;;1.83;;
51614;SDS011;37695;52.960;6.188;2024-03-23T01:34:35;12.23;;;1.60;;
51614;SDS011;37695;52.960;6.188;2024-03-23T01:37:01;11.75;;;1.52;;
51614;SDS011;37695;52.960;6.188;2024-03-23T01:39:27;10.60;;;2.03;;
51614;SDS011;37695;52.960;6.188;2024-03-23T01:41:52;11.23;;;1.80;;
51614;SDS011;37695;52.960;6.188;2024-03-23T01:44:18;9.15;;;1.83;;
51614;SDS011;37695;52.960;6.188;2024-03-23T01:46:44;6.65;;;1.25;;
51614;SDS011;37695;52.960;6.188;2024-03-23T01:49:10;8.85;;;1.58;;
51614;SDS011;37695;52.960;6.188;2024-03-23T01:51:36;7.32;;;1.20;;
51614;SDS011;37695;52.960;6.188;2024-03-23T01:54:03;10.18;;;1.50;;
51614;SDS011;37695;52.960;6.188;2024-03-23T01:56:32;9.32;;;1.70;;
51614;SDS011;37695;52.960;6.188;2024-03-23T01:59:00;8.43;;;1.05;;
51614;SDS011;37695;52.960;6.188;2024-03-23T02:01:34;11.73;;;2.10;;
51614;SDS011;37695;52.960;6.188;2024-03-23T02:04:03;11.10;;;1.30;;
51614;SDS011;37695;52.960;6.188;2024-03-23T02:06:29;12.32;;;1.38;;
51614;SDS011;37695;52.960;6.188;2024-03-23T02:08:55;6.68;;;1.20;;
51614;SDS011;37695;52.960;6.188;2024-03-23T02:11:21;10.50;;;1.60;;
51614;SDS011;37695;52.960;6.188;2024-03-23T02:13:47;6.85;;;1.08;;
51614;SDS011;37695;52.960;6.188;2024-03-23T02:16:13;13.60;;;1.33;;
51614;SDS011;37695;52.960;6.188;2024-03-23T02:18:39;7.18;;;1.45;;
51614;SDS011;37695;52.960;6.188;2024-03-23T02:21:05;9.85;;;1.30;;
51614;SDS011;37695;52.960;6.188;2024-03-23T02:23:30;10.32;;;1.73;;
51614;SDS011;37695;52.960;6.188;2024-03-23T02:25:56;7.80;;;1.10;;
51614;SDS011;37695;52.960;6.188;2024-03-23T02:28:22;7.07;;;1.23;;
51614;SDS011;37695;52.960;6.188;2024-03-23T02:30:50;8.57;;;1.30;;
51614;SDS011;37695;52.960;6.188;2024-03-23T02:33:16;6.53;;;1.10;;
51614;SDS011;37695;52.960;6.188;2024-03-23T02:35:43;10.38;;;1.13;;
51614;SDS011;37695;52.960;6.188;2024-03-23T02:38:09;11.77;;;1.50;;
51614;SDS011;37695;52.960;6.188;2024-03-23T02:40:34;9.77;;;1.25;;
51614;SDS011;37695;52.960;6.188;2024-03-23T02:43:02;9.65;;;1.58;;
51614;SDS011;37695;52.960;6.188;2024-03-23T02:45:28;9.02;;;1.15;;
51614;SDS011;37695;52.960;6.188;2024-03-23T02:47:54;10.43;;;1.52;;
51614;SDS011;37695;52.960;6.188;2024-03-23T02:50:19;12.35;;;1.60;;
51614;SDS011;37695;52.960;6.188;2024-03-23T02:52:45;6.63;;;1.75;;
51614;SDS011;37695;52.960;6.188;2024-03-23T02:55:12;10.68;;;1.60;;
51614;SDS011;37695;52.960;6.188;2024-03-23T02:57:38;8.98;;;1.40;;
51614;SDS011;37695;52.960;6.188;2024-03-23T03:00:04;8.25;;;1.20;;
51614;SDS011;37695;52.960;6.188;2024-03-23T03:02:31;7.75;;;1.60;;
51614;SDS011;37695;52.960;6.188;2024-03-23T03:04:57;11.38;;;1.08;;
51614;SDS011;37695;52.960;6.188;2024-03-23T03:07:23;6.95;;;1.52;;
51614;SDS011;37695;52.960;6.188;2024-03-23T03:09:48;9.57;;;1.70;;
51614;SDS011;37695;52.960;6.188;2024-03-23T03:12:14;8.52;;;1.10;;
51614;SDS011;37695;52.960;6.188;2024-03-23T03:14:40;8.52;;;1.70;;
51614;SDS011;37695;52.960;6.188;2024-03-23T03:17:06;7.57;;;1.30;;
51614;SDS011;37695;52.960;6.188;2024-03-23T03:19:32;6.07;;;1.10;;
51614;SDS011;37695;52.960;6.188;2024-03-23T03:21:57;13.88;;;2.25;;
51614;SDS011;37695;52.960;6.188;2024-03-23T03:24:23;9.35;;;1.45;;
51614;SDS011;37695;52.960;6.188;2024-03-23T03:26:49;11.88;;;1.40;;
51614;SDS011;37695;52.960;6.188;2024-03-23T03:29:15;7.78;;;1.02;;
51614;SDS011;37695;52.960;6.188;2024-03-23T03:31:41;6.53;;;0.98;;
51614;SDS011;37695;52.960;6.188;2024-03-23T03:34:08;9.13;;;1.10;;
51614;SDS011;37695;52.960;6.188;2024-03-23T03:36:33;5.53;;;1.02;;
51614;SDS011;37695;52.960;6.188;2024-03-23T03:38:59;10.00;;;1.17;;
51614;SDS011;37695;52.960;6.188;2024-03-23T03:41:25;9.43;;;1.30;;
51614;SDS011;37695;52.960;6.188;2024-03-23T03:43:51;8.73;;;0.98;;
51614;SDS011;37695;52.960;6.188;2024-03-23T03:46:17;9.80;;;1.13;;
51614;SDS011;37695;52.960;6.188;2024-03-23T03:48:42;6.80;;;1.60;;
51614;SDS011;37695;52.960;6.188;2024-03-23T03:51:10;8.18;;;1.52;;
51614;SDS011;37695;52.960;6.188;2024-03-23T03:53:35;8.35;;;0.95;;
51614;SDS011;37695;52.960;6.188;2024-03-23T03:56:01;6.85;;;1.70;;
51614;SDS011;37695;52.960;6.188;2024-03-23T03:58:27;6.18;;;1.05;;
51614;SDS011;37695;52.960;6.188;2024-03-23T04:00:53;7.38;;;1.33;;
51614;SDS011;37695;52.960;6.188;2024-03-23T04:03:19;8.43;;;1.25;;
51614;SDS011;37695;52.960;6.188;2024-03-23T04:05:54;6.35;;;1.00;;
51614;SDS011;37695;52.960;6.188;2024-03-23T04:08:20;8.55;;;0.80;;
51614;SDS011;37695;52.960;6.188;2024-03-23T04:10:46;12.50;;;1.13;;
51614;SDS011;37695;52.960;6.188;2024-03-23T04:13:12;11.10;;;1.20;;
51614;SDS011;37695;52.960;6.188;2024-03-23T04:15:39;5.38;;;0.90;;
51614;SDS011;37695;52.960;6.188;2024-03-23T04:18:04;12.77;;;1.10;;
51614;SDS011;37695;52.960;6.188;2024-03-23T04:20:30;6.78;;;1.10;;
51614;SDS011;37695;52.960;6.188;2024-03-23T04:22:57;7.78;;;1.00;;
51614;SDS011;37695;52.960;6.188;2024-03-23T04:25:23;10.63;;;1.33;;
51614;SDS011;37695;52.960;6.188;2024-03-23T04:27:49;8.35;;;0.88;;
51614;SDS011;37695;52.960;6.188;2024-03-23T04:30:15;5.80;;;1.15;;
51614;SDS011;37695;52.960;6.188;2024-03-23T04:32:41;7.60;;;1.10;;
51614;SDS011;37695;52.960;6.188;2024-03-23T04:35:07;7.43;;;0.95;;
51614;SDS011;37695;52.960;6.188;2024-03-23T04:37:36;9.52;;;0.93;;
51614;SDS011;37695;52.960;6.188;2024-03-23T04:40:02;7.63;;;0.93;;
51614;SDS011;37695;52.960;6.188;2024-03-23T04:42:29;9.02;;;0.60;;
51614;SDS011;37695;52.960;6.188;2024-03-23T04:44:55;8.52;;;0.82;;
51614;SDS011;37695;52.960;6.188;2024-03-23T04:47:21;13.10;;;1.05;;
51614;SDS011;37695;52.960;6.188;2024-03-23T04:49:47;4.68;;;1.10;;
51614;SDS011;37695;52.960;6.188;2024-03-23T04:52:13;8.13;;;0.90;;
51614;SDS011;37695;52.960;6.188;2024-03-23T04:54:39;5.05;;;0.50;;
51614;SDS011;37695;52.960;6.188;2024-03-23T04:57:05;8.90;;;0.90;;
51614;SDS011;37695;52.960;6.188;2024-03-23T04:59:31;7.07;;;0.95;;
51614;SDS011;37695;52.960;6.188;2024-03-23T05:01:58;6.18;;;1.02;;
51614;SDS011;37695;52.960;6.188;2024-03-23T05:04:24;7.80;;;0.70;;
51614;SDS011;37695;52.960;6.188;2024-03-23T05:06:50;7.05;;;0.75;;
51614;SDS011;37695;52.960;6.188;2024-03-23T05:09:16;6.90;;;0.77;;
51614;SDS011;37695;52.960;6.188;2024-03-23T05:11:41;8.82;;;0.65;;
51614;SDS011;37695;52.960;6.188;2024-03-23T05:14:07;7.25;;;0.80;;
51614;SDS011;37695;52.960;6.188;2024-03-23T05:16:33;8.63;;;0.90;;
51614;SDS011;37695;52.960;6.188;2024-03-23T05:18:59;9.50;;;0.80;;
51614;SDS011;37695;52.960;6.188;2024-03-23T05:21:24;7.93;;;0.60;;
51614;SDS011;37695;52.960;6.188;2024-03-23T05:23:50;7.22;;;0.60;;
51614;SDS011;37695;52.960;6.188;2024-03-23T05:26:16;6.43;;;0.80;;
51614;SDS011;37695;52.960;6.188;2024-03-23T05:28:42;12.80;;;0.93;;
51614;SDS011;37695;52.960;6.188;2024-03-23T05:31:08;8.55;;;0.60;;
51614;SDS011;37695;52.960;6.188;2024-03-23T05:33:35;9.63;;;1.33;;
51614;SDS011;37695;52.960;6.188;2024-03-23T05:36:03;6.22;;;1.42;;
51614;SDS011;37695;52.960;6.188;2024-03-23T05:38:29;9.55;;;0.77;;
51614;SDS011;37695;52.960;6.188;2024-03-23T05:40:59;6.28;;;0.50;;
51614;SDS011;37695;52.960;6.188;2024-03-23T05:43:25;7.43;;;0.70;;
51614;SDS011;37695;52.960;6.188;2024-03-23T05:45:58;7.88;;;0.90;;
51614;SDS011;37695;52.960;6.188;2024-03-23T05:48:26;5.10;;;0.38;;
51614;SDS011;37695;52.960;6.188;2024-03-23T05:50:53;5.82;;;1.00;;
51614;SDS011;37695;52.960;6.188;2024-03-23T05:53:19;7.75;;;0.98;;
51614;SDS011;37695;52.960;6.188;2024-03-23T05:55:48;5.78;;;0.95;;
51614;SDS011;37695;52.960;6.188;2024-03-23T05:58:16;5.70;;;0.80;;
51614;SDS011;37695;52.960;6.188;2024-03-23T06:00:43;6.72;;;0.90;;
51614;SDS011;37695;52.960;6.188;2024-03-23T06:03:09;6.28;;;0.80;;
51614;SDS011;37695;52.960;6.188;2024-03-23T06:05:36;6.72;;;0.47;;
51614;SDS011;37695;52.960;6.188;2024-03-23T06:08:02;4.13;;;0.68;;
51614;SDS011;37695;52.960;6.188;2024-03-23T06:10:28;1.45;;;0.10;;
51614;SDS011;37695;52.960;6.188;2024-03-23T06:12:53;3.38;;;0.80;;
51614;SDS011;37695;52.960;6.188;2024-03-23T06:15:19;3.33;;;0.52;;
51614;SDS011;37695;52.960;6.188;2024-03-23T06:17:45;0.65;;;0.13;;
51614;SDS011;37695;52.960;6.188;2024-03-23T06:20:11;1.50;;;0.20;;
51614;SDS011;37695;52.960;6.188;2024-03-23T06:22:37;1.48;;;0.20;;
51614;SDS011;37695;52.960;6.188;2024-03-23T06:25:04;1.42;;;0.22;;
51614;SDS011;37695;52.960;6.188;2024-03-23T06:27:30;2.88;;;0.45;;
51614;SDS011;37695;52.960;6.188;2024-03-23T06:29:57;2.47;;;0.60;;
51614;SDS011;37695;52.960;6.188;2024-03-23T06:32:23;2.22;;;0.30;;
51614;SDS011;37695;52.960;6.188;2024-03-23T06:34:49;3.05;;;0.35;;
51614;SDS011;37695;52.960;6.188;2024-03-23T06:37:14;4.32;;;0.60;;
51614;SDS011;37695;52.960;6.188;2024-03-23T06:39:40;4.47;;;0.70;;
51614;SDS011;37695;52.960;6.188;2024-03-23T06:42:06;3.00;;;0.70;;
51614;SDS011;37695;52.960;6.188;2024-03-23T06:44:33;2.95;;;0.60;;
51614;SDS011;37695;52.960;6.188;2024-03-23T06:46:58;8.40;;;0.77;;
51614;SDS011;37695;52.960;6.188;2024-03-23T06:49:24;4.60;;;0.47;;
51614;SDS011;37695;52.960;6.188;2024-03-23T06:51:50;4.30;;;0.50;;
51614;SDS011;37695;52.960;6.188;2024-03-23T06:54:19;3.33;;;0.55;;
51614;SDS011;37695;52.960;6.188;2024-03-23T06:56:45;4.88;;;0.60;;
51614;SDS011;37695;52.960;6.188;2024-03-23T06:59:11;3.58;;;0.65;;
51614;SDS011;37695;52.960;6.188;2024-03-23T07:01:36;4.35;;;0.80;;
51614;SDS011;37695;52.960;6.188;2024-03-23T07:04:02;5.32;;;0.82;;
51614;SDS011;37695;52.960;6.188;2024-03-23T07:06:29;5.95;;;0.70;;
51614;SDS011;37695;52.960;6.188;2024-03-23T07:08:58;4.00;;;0.40;;
51614;SDS011;37695;52.960;6.188;2024-03-23T07:11:23;5.03;;;0.98;;
51614;SDS011;37695;52.960;6.188;2024-03-23T07:13:50;4.50;;;0.70;;
51614;SDS011;37695;52.960;6.188;2024-03-23T07:16:16;6.32;;;0.63;;
51614;SDS011;37695;52.960;6.188;2024-03-23T07:18:42;6.93;;;0.65;;
51614;SDS011;37695;52.960;6.188;2024-03-23T07:21:08;6.50;;;0.68;;
51614;SDS011;37695;52.960;6.188;2024-03-23T07:23:34;6.50;;;0.90;;
51614;SDS011;37695;52.960;6.188;2024-03-23T07:26:00;5.47;;;0.98;;
51614;SDS011;37695;52.960;6.188;2024-03-23T07:28:27;1.42;;;0.47;;
51614;SDS011;37695;52.960;6.188;2024-03-23T07:31:09;5.00;;;0.50;;
51614;SDS011;37695;52.960;6.188;2024-03-23T07:33:45;2.50;;;0.38;;
51614;SDS011;37695;52.960;6.188;2024-03-23T07:36:12;4.07;;;0.52;;
51614;SDS011;37695;52.960;6.188;2024-03-23T07:38:41;2.75;;;0.28;;
51614;SDS011;37695;52.960;6.188;2024-03-23T07:41:10;3.72;;;0.50;;
51614;SDS011;37695;52.960;6.188;2024-03-23T07:43:39;4.05;;;0.57;;
51614;SDS011;37695;52.960;6.188;2024-03-23T07:46:05;3.83;;;0.73;;
51614;SDS011;37695;52.960;6.188;2024-03-23T07:48:32;4.43;;;0.30;;
51614;SDS011;37695;52.960;6.188;2024-03-23T07:51:07;5.95;;;1.13;;
51614;SDS011;37695;52.960;6.188;2024-03-23T07:53:35;3.78;;;1.13;;
51614;SDS011;37695;52.960;6.188;2024-03-23T07:56:08;4.25;;;0.30;;
51614;SDS011;37695;52.960;6.188;2024-03-23T07:58:35;4.97;;;0.50;;
51614;SDS011;37695;52.960;6.188;2024-03-23T08:01:34;2.83;;;0.40;;
51614;SDS011;37695;52.960;6.188;2024-03-23T08:03:53;5.13;;;0.60;;
51614;SDS011;37695;52.960;6.188;2024-03-23T08:06:19;5.30;;;0.60;;
51614;SDS011;37695;52.960;6.188;2024-03-23T08:08:47;4.22;;;0.60;;
51614;SDS011;37695;52.960;6.188;2024-03-23T08:11:25;5.75;;;0.70;;
51614;SDS011;37695;52.960;6.188;2024-03-23T08:13:51;6.40;;;0.70;;
51614;SDS011;37695;52.960;6.188;2024-03-23T08:16:17;4.53;;;0.30;;
51614;SDS011;37695;52.960;6.188;2024-03-23T08:18:43;3.20;;;0.70;;
51614;SDS011;37695;52.960;6.188;2024-03-23T08:21:09;4.40;;;0.60;;
51614;SDS011;37695;52.960;6.188;2024-03-23T08:23:35;4.53;;;0.60;;
51614;SDS011;37695;52.960;6.188;2024-03-23T08:26:05;3.00;;;0.63;;
51614;SDS011;37695;52.960;6.188;2024-03-23T08:28:38;6.35;;;1.27;;
51614;SDS011;37695;52.960;6.188;2024-03-23T08:31:07;4.20;;;0.85;;
51614;SDS011;37695;52.960;6.188;2024-03-23T08:33:34;4.25;;;0.50;;
51614;SDS011;37695;52.960;6.188;2024-03-23T08:36:05;5.93;;;0.80;;
51614;SDS011;37695;52.960;6.188;2024-03-23T08:38:32;3.80;;;0.55;;
51614;SDS011;37695;52.960;6.188;2024-03-23T08:43:24;5.53;;;1.10;;
51614;SDS011;37695;52.960;6.188;2024-03-23T08:45:50;5.90;;;1.00;;
51614;SDS011;37695;52.960;6.188;2024-03-23T08:48:17;7.03;;;1.00;;
51614;SDS011;37695;52.960;6.188;2024-03-23T08:50:45;5.53;;;0.63;;
51614;SDS011;37695;52.960;6.188;2024-03-23T08:53:11;4.75;;;0.50;;
51614;SDS011;37695;52.960;6.188;2024-03-23T08:55:37;4.72;;;0.63;;
51614;SDS011;37695;52.960;6.188;2024-03-23T08:58:02;7.03;;;1.45;;
51614;SDS011;37695;52.960;6.188;2024-03-23T09:00:29;8.07;;;0.50;;
51614;SDS011;37695;52.960;6.188;2024-03-23T09:02:55;6.20;;;0.73;;
51614;SDS011;37695;52.960;6.188;2024-03-23T09:05:22;4.18;;;0.35;;
51614;SDS011;37695;52.960;6.188;2024-03-23T09:07:49;4.60;;;0.82;;
51614;SDS011;37695;52.960;6.188;2024-03-23T09:10:15;4.47;;;0.93;;
51614;SDS011;37695;52.960;6.188;2024-03-23T09:12:40;4.63;;;0.50;;
51614;SDS011;37695;52.960;6.188;2024-03-23T09:15:06;5.03;;;0.70;;
51614;SDS011;37695;52.960;6.188;2024-03-23T09:17:32;8.75;;;0.68;;
51614;SDS011;37695;52.960;6.188;2024-03-23T09:19:57;1.88;;;0.30;;
51614;SDS011;37695;52.960;6.188;2024-03-23T09:22:23;7.88;;;1.35;;
51614;SDS011;37695;52.960;6.188;2024-03-23T09:24:49;4.28;;;0.35;;
51614;SDS011;37695;52.960;6.188;2024-03-23T09:27:14;3.75;;;0.50;;
51614;SDS011;37695;52.960;6.188;2024-03-23T09:29:40;4.97;;;0.50;;
51614;SDS011;37695;52.960;6.188;2024-03-23T09:32:05;3.53;;;0.60;;
51614;SDS011;37695;52.960;6.188;2024-03-23T09:34:31;4.95;;;0.40;;
51614;SDS011;37695;52.960;6.188;2024-03-23T09:36:57;3.95;;;0.50;;
51614;SDS011;37695;52.960;6.188;2024-03-23T09:39:22;7.72;;;0.45;;
51614;SDS011;37695;52.960;6.188;2024-03-23T09:41:48;5.40;;;0.45;;
51614;SDS011;37695;52.960;6.188;2024-03-23T09:44:13;5.57;;;0.80;;
51614;SDS011;37695;52.960;6.188;2024-03-23T09:46:39;14.20;;;1.08;;
51614;SDS011;37695;52.960;6.188;2024-03-23T09:49:07;3.10;;;0.63;;
51614;SDS011;37695;52.960;6.188;2024-03-23T09:51:35;5.63;;;1.15;;
51614;SDS011;37695;52.960;6.188;2024-03-23T09:54:01;4.72;;;0.77;;
51614;SDS011;37695;52.960;6.188;2024-03-23T09:56:27;3.42;;;0.40;;
51614;SDS011;37695;52.960;6.188;2024-03-23T09:58:59;5.63;;;0.40;;
51614;SDS011;37695;52.960;6.188;2024-03-23T10:01:31;1.58;;;0.20;;
51614;SDS011;37695;52.960;6.188;2024-03-23T10:03:58;4.93;;;0.50;;
51614;SDS011;37695;52.960;6.188;2024-03-23T10:06:23;1.55;;;0.10;;
51614;SDS011;37695;52.960;6.188;2024-03-23T10:08:52;6.47;;;0.73;;
51614;SDS011;37695;52.960;6.188;2024-03-23T10:11:20;6.28;;;0.90;;
51614;SDS011;37695;52.960;6.188;2024-03-23T10:13:46;2.50;;;0.30;;
51614;SDS011;37695;52.960;6.188;2024-03-23T10:16:12;4.80;;;0.30;;
51614;SDS011;37695;52.960;6.188;2024-03-23T10:18:47;5.25;;;0.30;;
51614;SDS011;37695;52.960;6.188;2024-03-23T10:21:14;5.07;;;0.52;;
51614;SDS011;37695;52.960;6.188;2024-03-23T10:23:41;5.40;;;0.30;;
51614;SDS011;37695;52.960;6.188;2024-03-23T10:26:17;2.58;;;0.20;;
51614;SDS011;37695;52.960;6.188;2024-03-23T10:28:50;1.00;;;0.20;;
51614;SDS011;37695;52.960;6.188;2024-03-23T10:31:19;2.40;;;0.20;;
51614;SDS011;37695;52.960;6.188;2024-03-23T10:33:46;2.58;;;0.30;;
51614;SDS011;37695;52.960;6.188;2024-03-23T10:36:12;1.23;;;0.03;;
51614;SDS011;37695;52.960;6.188;2024-03-23T10:38:40;0.95;;;0.10;;
51614;SDS011;37695;52.960;6.188;2024-03-23T10:41:07;3.60;;;0.20;;
51614;SDS011;37695;52.960;6.188;2024-03-23T10:43:34;3.65;;;0.30;;
51614;SDS011;37695;52.960;6.188;2024-03-23T10:46:02;0.90;;;0.40;;
51614;SDS011;37695;52.960;6.188;2024-03-23T10:48:28;5.20;;;0.20;;
51614;SDS011;37695;52.960;6.188;2024-03-23T10:50:54;0.82;;;0.17;;
51614;SDS011;37695;52.960;6.188;2024-03-23T10:53:21;2.50;;;0.30;;
51614;SDS011;37695;52.960;6.188;2024-03-23T10:55:50;3.20;;;0.43;;
51614;SDS011;37695;52.960;6.188;2024-03-23T10:58:17;2.95;;;0.40;;
51614;SDS011;37695;52.960;6.188;2024-03-23T11:00:46;3.30;;;0.30;;
51614;SDS011;37695;52.960;6.188;2024-03-23T11:05:58;1.05;;;0.10;;
51614;SDS011;37695;52.960;6.188;2024-03-23T11:18:43;0.43;;;0.00;;
51614;SDS011;37695;52.960;6.188;2024-03-23T11:21:09;0.85;;;0.10;;
51614;SDS011;37695;52.960;6.188;2024-03-23T11:23:35;2.33;;;0.30;;
51614;SDS011;37695;52.960;6.188;2024-03-23T11:26:01;3.60;;;0.55;;
51614;SDS011;37695;52.960;6.188;2024-03-23T11:28:27;3.92;;;0.85;;
51614;SDS011;37695;52.960;6.188;2024-03-23T11:30:53;3.15;;;0.55;;
51614;SDS011;37695;52.960;6.188;2024-03-23T11:33:19;5.60;;;0.73;;
51614;SDS011;37695;52.960;6.188;2024-03-23T11:35:44;4.53;;;0.35;;
51614;SDS011;37695;52.960;6.188;2024-03-23T11:38:11;0.20;;;0.00;;
51614;SDS011;37695;52.960;6.188;2024-03-23T11:40:43;1.25;;;0.10;;
51614;SDS011;37695;52.960;6.188;2024-03-23T11:43:17;1.20;;;0.40;;
51614;SDS011;37695;52.960;6.188;2024-03-23T11:48:10;0.50;;;0.00;;
51614;SDS011;37695;52.960;6.188;2024-03-23T11:50:45;0.80;;;0.00;;
51614;SDS011;37695;52.960;6.188;2024-03-23T11:53:12;0.98;;;0.00;;
51614;SDS011;37695;52.960;6.188;2024-03-23T11:58:11;2.08;;;0.20;;
51614;SDS011;37695;52.960;6.188;2024-03-23T12:00:37;3.38;;;0.15;;
51614;SDS011;37695;52.960;6.188;2024-03-23T12:03:04;2.30;;;0.10;;
51614;SDS011;37695;52.960;6.188;2024-03-23T12:05:33;1.85;;;0.32;;
51614;SDS011;37695;52.960;6.188;2024-03-23T12:10:51;3.03;;;0.75;;
51614;SDS011;37695;52.960;6.188;2024-03-23T12:13:18;4.18;;;0.75;;
51614;SDS011;37695;52.960;6.188;2024-03-23T12:15:46;5.60;;;0.35;;
51614;SDS011;37695;52.960;6.188;2024-03-23T12:18:12;5.75;;;0.55;;
51614;SDS011;37695;52.960;6.188;2024-03-23T12:20:39;6.05;;;0.77;;
51614;SDS011;37695;52.960;6.188;2024-03-23T12:23:05;2.20;;;0.30;;
51614;SDS011;37695;52.960;6.188;2024-03-23T12:25:35;5.57;;;0.80;;
51614;SDS011;37695;52.960;6.188;2024-03-23T12:28:01;7.38;;;1.00;;
51614;SDS011;37695;52.960;6.188;2024-03-23T12:30:27;8.07;;;0.70;;
51614;SDS011;37695;52.960;6.188;2024-03-23T12:32:53;1.42;;;0.30;;
51614;SDS011;37695;52.960;6.188;2024-03-23T12:35:19;7.07;;;0.63;;
51614;SDS011;37695;52.960;6.188;2024-03-23T12:37:44;7.20;;;0.75;;
51614;SDS011;37695;52.960;6.188;2024-03-23T12:40:10;5.97;;;1.13;;
51614;SDS011;37695;52.960;6.188;2024-03-23T12:42:36;5.18;;;0.60;;
51614;SDS011;37695;52.960;6.188;2024-03-23T12:45:02;6.43;;;0.55;;
51614;SDS011;37695;52.960;6.188;2024-03-23T12:47:29;3.85;;;0.38;;
51614;SDS011;37695;52.960;6.188;2024-03-23T12:49:55;5.75;;;0.38;;
51614;SDS011;37695;52.960;6.188;2024-03-23T12:52:21;4.40;;;0.47;;
51614;SDS011;37695;52.960;6.188;2024-03-23T12:54:49;3.60;;;0.40;;
51614;SDS011;37695;52.960;6.188;2024-03-23T12:57:14;3.47;;;0.55;;
51614;SDS011;37695;52.960;6.188;2024-03-23T12:59:40;6.05;;;0.73;;
51614;SDS011;37695;52.960;6.188;2024-03-23T13:02:06;3.90;;;0.40;;
51614;SDS011;37695;52.960;6.188;2024-03-23T13:04:32;3.97;;;0.35;;
51614;SDS011;37695;52.960;6.188;2024-03-23T13:06:58;8.70;;;1.05;;
51614;SDS011;37695;52.960;6.188;2024-03-23T13:09:23;4.40;;;0.52;;
51614;SDS011;37695;52.960;6.188;2024-03-23T13:11:49;4.43;;;0.52;;
51614;SDS011;37695;52.960;6.188;2024-03-23T13:14:14;8.95;;;0.90;;
51614;SDS011;37695;52.960;6.188;2024-03-23T13:16:41;4.68;;;0.40;;
51614;SDS011;37695;52.960;6.188;2024-03-23T13:19:07;6.90;;;0.98;;
51614;SDS011;37695;52.960;6.188;2024-03-23T13:21:33;3.38;;;0.40;;
51614;SDS011;37695;52.960;6.188;2024-03-23T13:23:58;2.45;;;0.40;;
51614;SDS011;37695;52.960;6.188;2024-03-23T13:26:24;6.20;;;0.30;;
51614;SDS011;37695;52.960;6.188;2024-03-23T13:28:50;1.98;;;0.30;;
51614;SDS011;37695;52.960;6.188;2024-03-23T13:31:15;4.63;;;0.32;;
51614;SDS011;37695;52.960;6.188;2024-03-23T13:33:41;5.25;;;0.50;;
51614;SDS011;37695;52.960;6.188;2024-03-23T13:36:09;8.27;;;0.80;;
51614;SDS011;37695;52.960;6.188;2024-03-23T13:38:34;4.68;;;0.43;;
51614;SDS011;37695;52.960;6.188;2024-03-23T13:41:00;4.25;;;0.38;;
51614;SDS011;37695;52.960;6.188;2024-03-23T13:43:26;3.10;;;0.70;;
51614;SDS011;37695;52.960;6.188;2024-03-23T13:45:53;5.30;;;0.43;;
51614;SDS011;37695;52.960;6.188;2024-03-23T13:48:21;8.52;;;1.13;;
51614;SDS011;37695;52.960;6.188;2024-03-23T13:50:56;3.90;;;0.55;;
51614;SDS011;37695;52.960;6.188;2024-03-23T13:53:22;3.08;;;0.40;;
51614;SDS011;37695;52.960;6.188;2024-03-23T13:55:48;3.90;;;0.55;;
51614;SDS011;37695;52.960;6.188;2024-03-23T13:58:15;5.13;;;0.40;;
51614;SDS011;37695;52.960;6.188;2024-03-23T14:00:40;4.50;;;0.43;;
51614;SDS011;37695;52.960;6.188;2024-03-23T14:03:13;5.20;;;0.85;;
51614;SDS011;37695;52.960;6.188;2024-03-23T14:05:39;5.25;;;0.38;;
51614;SDS011;37695;52.960;6.188;2024-03-23T14:10:36;8.52;;;0.60;;
51614;SDS011;37695;52.960;6.188;2024-03-23T14:13:05;3.78;;;0.40;;
51614;SDS011;37695;52.960;6.188;2024-03-23T14:15:30;3.00;;;0.40;;
51614;SDS011;37695;52.960;6.188;2024-03-23T14:17:56;4.10;;;0.68;;
51614;SDS011;37695;52.960;6.188;2024-03-23T14:20:22;3.63;;;0.75;;
51614;SDS011;37695;52.960;6.188;2024-03-23T14:22:48;4.88;;;0.70;;
51614;SDS011;37695;52.960;6.188;2024-03-23T14:25:14;3.30;;;0.20;;
51614;SDS011;37695;52.960;6.188;2024-03-23T14:27:40;3.17;;;0.30;;
51614;SDS011;37695;52.960;6.188;2024-03-23T14:30:06;4.45;;;0.40;;
51614;SDS011;37695;52.960;6.188;2024-03-23T14:32:33;3.38;;;0.13;;
51614;SDS011;37695;52.960;6.188;2024-03-23T14:35:05;2.45;;;0.20;;
51614;SDS011;37695;52.960;6.188;2024-03-23T14:37:36;2.22;;;0.30;;
51614;SDS011;37695;52.960;6.188;2024-03-23T14:40:02;5.55;;;0.30;;
51614;SDS011;37695;52.960;6.188;2024-03-23T14:42:29;2.03;;;0.20;;
51614;SDS011;37695;52.960;6.188;2024-03-23T14:44:56;6.03;;;0.40;;
51614;SDS011;37695;52.960;6.188;2024-03-23T14:47:22;3.00;;;0.20;;
51614;SDS011;37695;52.960;6.188;2024-03-23T14:49:47;4.20;;;0.28;;
51614;SDS011;37695;52.960;6.188;2024-03-23T14:52:15;2.35;;;0.20;;
51614;SDS011;37695;52.960;6.188;2024-03-23T14:54:41;2.15;;;0.28;;
51614;SDS011;37695;52.960;6.188;2024-03-23T14:57:07;4.32;;;0.40;;
51614;SDS011;37695;52.960;6.188;2024-03-23T14:59:34;5.30;;;0.85;;
51614;SDS011;37695;52.960;6.188;2024-03-23T15:02:00;5.03;;;0.70;;
51614;SDS011;37695;52.960;6.188;2024-03-23T15:04:26;5.22;;;0.40;;
51614;SDS011;37695;52.960;6.188;2024-03-23T15:06:51;4.70;;;0.68;;
51614;SDS011;37695;52.960;6.188;2024-03-23T15:09:17;4.68;;;0.57;;
51614;SDS011;37695;52.960;6.188;2024-03-23T15:11:43;2.90;;;0.10;;
51614;SDS011;37695;52.960;6.188;2024-03-23T15:14:09;3.30;;;0.20;;
51614;SDS011;37695;52.960;6.188;2024-03-23T15:16:35;3.13;;;0.20;;
51614;SDS011;37695;52.960;6.188;2024-03-23T15:19:01;0.38;;;0.00;;
51614;SDS011;37695;52.960;6.188;2024-03-23T15:21:27;2.08;;;0.30;;
51614;SDS011;37695;52.960;6.188;2024-03-23T15:23:53;1.65;;;0.17;;
51614;SDS011;37695;52.960;6.188;2024-03-23T15:26:18;3.40;;;0.17;;
51614;SDS011;37695;52.960;6.188;2024-03-23T15:28:47;1.23;;;0.10;;
51614;SDS011;37695;52.960;6.188;2024-03-23T15:31:22;4.70;;;0.35;;
51614;SDS011;37695;52.960;6.188;2024-03-23T15:33:47;1.75;;;0.10;;
51614;SDS011;37695;52.960;6.188;2024-03-23T15:36:13;3.47;;;0.40;;
51614;SDS011;37695;52.960;6.188;2024-03-23T15:38:39;2.85;;;0.50;;
51614;SDS011;37695;52.960;6.188;2024-03-23T15:41:05;6.25;;;0.25;;
51614;SDS011;37695;52.960;6.188;2024-03-23T15:43:30;2.97;;;0.17;;
51614;SDS011;37695;52.960;6.188;2024-03-23T15:46:00;2.40;;;0.30;;
51614;SDS011;37695;52.960;6.188;2024-03-23T15:48:27;1.42;;;0.17;;
51614;SDS011;37695;52.960;6.188;2024-03-23T15:50:55;3.03;;;0.22;;
51614;SDS011;37695;52.960;6.188;2024-03-23T15:53:23;4.57;;;0.47;;
51614;SDS011;37695;52.960;6.188;2024-03-23T15:58:25;4.53;;;0.25;;
51614;SDS011;37695;52.960;6.188;2024-03-23T16:00:59;1.25;;;0.20;;
51614;SDS011;37695;52.960;6.188;2024-03-23T16:03:34;3.58;;;0.50;;
51614;SDS011;37695;52.960;6.188;2024-03-23T16:06:00;3.38;;;0.20;;